Time;durP1;ratioP1;P1;durP2;ratioP2;P2;SDS_P1;SDS_P2;PMS_P1;PMS_P2;Temp;Humidity;BMP_temperature;BMP_pressure;BME280_temperature;BME280_humidity;BME280_pressure;Samples;Min_cycle;Max_cycle;Signal;HPM_P1;HPM_P2
2020/12/13 00:02:03;;;;;;;37.22;18.35;;;11.50;79.80;;;;;;5020303;28;20041;-72
2020/12/13 00:04:29;;;;;;;33.33;17.88;;;11.50;79.80;;;;;;5018067;28;20033;-73
2020/12/13 00:06:54;;;;;;;37.88;19.25;;;11.50;79.80;;;;;;5018746;28;20092;-72
2020/12/13 00:09:20;;;;;;;45.88;23.00;;;11.50;79.90;;;;;;5003059;28;20526;-73
2020/12/13 00:11:45;;;;;;;39.75;20.13;;;11.40;79.70;;;;;;5022798;28;20501;-73
2020/12/13 00:14:11;;;;;;;45.15;22.67;;;11.30;80.00;;;;;;5012716;28;20026;-73
2020/12/13 00:16:36;;;;;;;38.65;20.10;;;11.30;80.20;;;;;;5012260;28;20503;-72
2020/12/13 00:19:02;;;;;;;44.15;21.55;;;11.20;80.30;;;;;;5013245;28;20484;-73
2020/12/13 00:21:28;;;;;;;40.97;21.10;;;11.10;80.40;;;;;;5008114;28;20033;-73
2020/12/13 00:23:54;;;;;;;46.95;24.45;;;11.10;80.50;;;;;;5020207;28;20080;-72
2020/12/13 00:26:20;;;;;;;46.35;24.27;;;11.00;80.80;;;;;;5023485;28;20121;-73
2020/12/13 00:28:45;;;;;;;40.45;22.13;;;11.00;80.90;;;;;;5027529;28;20205;-72
2020/12/13 00:31:16;;;;;;;46.42;24.95;;;11.00;80.90;;;;;;5007269;28;20089;-73
2020/12/13 00:33:42;;;;;;;54.65;28.08;;;11.00;80.90;;;;;;5020982;28;20037;-73
2020/12/13 00:36:08;;;;;;;46.47;24.65;;;10.90;81.10;;;;;;5015163;28;20422;-73
2020/12/13 00:38:34;;;;;;;51.78;22.65;;;10.90;81.10;;;;;;5020318;28;20033;-73
2020/12/13 00:40:59;;;;;;;49.35;24.58;;;11.00;81.10;;;;;;5028196;28;20368;-73
2020/12/13 00:43:25;;;;;;;46.35;23.88;;;11.00;80.90;;;;;;5013444;28;20042;-72
2020/12/13 00:45:50;;;;;;;50.40;25.92;;;11.10;80.70;;;;;;5016899;28;20068;-73
2020/12/13 00:48:16;;;;;;;48.45;25.00;;;11.10;80.60;;;;;;5019445;28;20045;-73
2020/12/13 00:50:42;;;;;;;54.47;27.15;;;11.10;80.40;;;;;;4996329;28;20438;-72
2020/12/13 00:53:07;;;;;;;48.70;24.75;;;11.20;80.40;;;;;;5020789;28;20137;-72
2020/12/13 00:55:33;;;;;;;45.08;24.02;;;11.20;80.40;;;;;;5010193;28;20416;-72
2020/12/13 00:57:59;;;;;;;44.50;24.08;;;11.20;80.20;;;;;;5027683;28;20041;-73
2020/12/13 01:00:26;;;;;;;48.03;24.85;;;11.30;80.10;;;;;;5025223;28;20391;-73
2020/12/13 01:02:57;;;;;;;44.80;23.92;;;11.30;79.90;;;;;;5010349;28;20099;-72
2020/12/13 01:05:24;;;;;;;41.78;21.95;;;11.30;79.80;;;;;;5016194;28;20022;-72
2020/12/13 01:07:50;;;;;;;48.55;24.88;;;11.40;79.60;;;;;;5013224;28;20406;-72
2020/12/13 01:10:17;;;;;;;48.80;24.95;;;11.40;79.40;;;;;;5018667;28;20029;-72
2020/12/13 01:12:43;;;;;;;46.47;24.60;;;11.50;79.10;;;;;;5025753;28;20038;-73
2020/12/13 01:15:09;;;;;;;45.97;24.50;;;11.50;79.00;;;;;;5012068;28;20038;-73
2020/12/13 01:17:34;;;;;;;44.50;24.50;;;11.50;79.10;;;;;;5025715;28;20045;-72
2020/12/13 01:20:00;;;;;;;45.28;24.35;;;11.50;79.10;;;;;;5013267;28;20460;-72
2020/12/13 01:22:26;;;;;;;45.88;24.30;;;11.50;78.90;;;;;;5000563;28;20034;-72
2020/12/13 01:24:52;;;;;;;44.42;23.58;;;11.50;78.60;;;;;;5016632;28;20041;-73
2020/12/13 01:27:17;;;;;;;50.80;24.88;;;11.60;78.50;;;;;;5012182;28;20620;-73
2020/12/13 01:29:43;;;;;;;49.22;23.00;;;11.60;78.30;;;;;;5016842;28;20049;-72
2020/12/13 01:32:09;;;;;;;46.03;24.10;;;11.70;78.20;;;;;;5007025;28;20046;-72
2020/12/13 01:34:35;;;;;;;56.20;27.45;;;11.70;78.00;;;;;;5030207;28;20099;-73
2020/12/13 01:37:01;;;;;;;51.65;25.35;;;11.70;77.90;;;;;;5019192;28;20026;-72
2020/12/13 01:39:27;;;;;;;42.25;22.98;;;11.60;77.90;;;;;;5026622;28;20057;-73
2020/12/13 01:41:57;;;;;;;45.83;24.23;;;11.60;77.80;;;;;;5028899;28;20092;-72
2020/12/13 01:44:32;;;;;;;49.97;25.13;;;11.60;77.80;;;;;;5013285;28;20475;-73
2020/12/13 01:47:00;;;;;;;40.05;20.73;;;11.60;77.80;;;;;;5026512;28;20033;-73
2020/12/13 01:49:46;;;;;;;53.05;27.05;;;11.60;77.90;;;;;;5017698;28;20042;-73
2020/12/13 01:55:12;;;;;;;47.83;22.70;;;11.60;78.20;;;;;;5025316;28;20087;-73
2020/12/13 01:57:39;;;;;;;46.97;23.25;;;11.50;78.20;;;;;;5029471;28;20138;-73
2020/12/13 02:00:16;;;;;;;47.60;24.45;;;11.40;78.50;;;;;;5028637;28;20120;-73
2020/12/13 02:02:52;;;;;;;46.03;23.38;;;11.40;78.80;;;;;;5020314;28;20026;-73
2020/12/13 02:05:23;;;;;;;46.78;22.90;;;11.30;78.90;;;;;;5029142;28;20029;-73
2020/12/13 02:07:49;;;;;;;43.90;23.63;;;11.30;79.10;;;;;;5017879;28;20099;-74
2020/12/13 02:10:16;;;;;;;40.65;21.58;;;11.30;79.20;;;;;;5020489;28;20053;-73
2020/12/13 02:12:42;;;;;;;44.58;22.73;;;11.30;79.00;;;;;;5024252;28;20099;-73
2020/12/13 02:15:08;;;;;;;48.40;22.83;;;11.30;78.90;;;;;;5018168;28;20091;-73
2020/12/13 02:17:36;;;;;;;36.65;20.25;;;11.40;78.80;;;;;;5029497;28;20371;-73
2020/12/13 02:20:08;;;;;;;52.33;23.85;;;11.40;78.70;;;;;;5017422;28;20041;-73
2020/12/13 02:22:41;;;;;;;44.55;21.55;;;11.50;78.40;;;;;;5026448;28;20029;-73
2020/12/13 02:25:18;;;;;;;44.15;21.02;;;11.50;78.30;;;;;;5009537;28;20037;-73
2020/12/13 02:27:44;;;;;;;39.85;21.27;;;11.50;78.20;;;;;;5018309;28;20083;-73
2020/12/13 02:30:10;;;;;;;41.30;22.35;;;11.60;78.10;;;;;;4995982;28;20050;-73
2020/12/13 02:32:36;;;;;;;41.42;21.63;;;11.60;77.90;;;;;;5028643;28;20033;-73
2020/12/13 02:35:04;;;;;;;39.72;21.60;;;11.60;77.80;;;;;;5026640;28;20048;-73
2020/12/13 02:37:29;;;;;;;42.50;22.63;;;11.60;77.60;;;;;;5021778;28;20390;-73
2020/12/13 02:39:55;;;;;;;41.92;20.67;;;11.70;77.60;;;;;;5018052;28;20025;-73
2020/12/13 02:42:21;;;;;;;39.30;20.35;;;11.60;78.10;;;;;;5009194;28;20921;-73
2020/12/13 02:44:47;;;;;;;41.40;21.00;;;11.70;77.50;;;;;;5008795;28;20113;-74
2020/12/13 02:47:12;;;;;;;37.25;18.92;;;11.70;77.40;;;;;;5025215;28;20038;-73
2020/12/13 02:49:41;;;;;;;41.45;21.73;;;11.70;77.40;;;;;;5013078;28;20046;-73
2020/12/13 02:52:08;;;;;;;43.40;20.80;;;11.70;77.50;;;;;;5015155;28;20030;-73
2020/12/13 02:54:34;;;;;;;38.55;20.00;;;11.70;77.60;;;;;;5010171;28;20030;-73
2020/12/13 02:56:59;;;;;;;45.97;21.70;;;11.70;77.70;;;;;;4994353;28;20045;-73
2020/12/13 02:59:25;;;;;;;40.67;20.88;;;11.70;77.80;;;;;;5025964;28;20047;-73
2020/12/13 03:01:51;;;;;;;41.30;21.63;;;11.70;77.70;;;;;;5030730;28;20088;-73
2020/12/13 03:04:16;;;;;;;48.00;22.70;;;11.70;77.60;;;;;;5014494;28;20105;-73
2020/12/13 03:06:42;;;;;;;49.50;20.88;;;11.70;77.60;;;;;;5019920;28;20120;-73
2020/12/13 03:09:07;;;;;;;43.40;22.02;;;11.70;77.60;;;;;;5003856;28;20041;-73
2020/12/13 03:11:33;;;;;;;42.90;21.23;;;11.70;77.50;;;;;;5014639;28;20042;-73
2020/12/13 03:13:59;;;;;;;45.42;21.38;;;11.70;77.50;;;;;;5012765;28;20550;-72
2020/12/13 03:16:25;;;;;;;44.45;21.95;;;11.70;77.50;;;;;;5028645;28;20030;-72
2020/12/13 03:18:50;;;;;;;45.13;21.60;;;11.70;77.40;;;;;;5030474;28;20038;-73
2020/12/13 03:21:16;;;;;;;44.58;22.02;;;11.70;77.40;;;;;;5022247;28;20033;-73
2020/12/13 03:23:41;;;;;;;45.08;22.50;;;11.80;77.50;;;;;;5013682;28;20045;-73
2020/12/13 03:26:07;;;;;;;42.72;19.98;;;11.80;77.40;;;;;;5013442;28;20099;-73
2020/12/13 03:28:32;;;;;;;37.85;19.88;;;11.80;77.50;;;;;;5023716;28;20124;-73
2020/12/13 03:30:58;;;;;;;45.63;24.00;;;11.80;77.40;;;;;;5013053;28;20058;-72
2020/12/13 03:33:24;;;;;;;51.83;23.40;;;11.80;78.00;;;;;;5014812;28;20908;-72
2020/12/13 03:35:50;;;;;;;51.88;23.30;;;11.80;77.30;;;;;;5016811;28;20036;-73
2020/12/13 03:38:15;;;;;;;47.00;21.42;;;11.80;77.30;;;;;;5021480;28;20038;-73
2020/12/13 03:40:41;;;;;;;50.35;23.33;;;11.80;77.30;;;;;;5031507;28;20037;-72
2020/12/13 03:43:07;;;;;;;50.67;21.35;;;11.80;77.30;;;;;;5011960;28;20031;-73
2020/12/13 03:45:33;;;;;;;50.45;22.75;;;11.80;77.30;;;;;;5019436;28;20030;-73
2020/12/13 03:47:59;;;;;;;45.70;20.48;;;11.80;77.30;;;;;;5021231;28;20359;-73
2020/12/13 03:50:24;;;;;;;57.97;25.77;;;11.80;77.40;;;;;;4995490;28;20039;-72
2020/12/13 03:52:50;;;;;;;63.45;26.85;;;11.80;77.40;;;;;;5001912;28;20059;-73
2020/12/13 03:55:16;;;;;;;64.18;25.58;;;11.80;77.40;;;;;;5030594;28;20030;-73
2020/12/13 03:57:41;;;;;;;54.72;24.25;;;11.80;77.40;;;;;;5031175;28;20390;-73
2020/12/13 04:00:07;;;;;;;57.35;24.23;;;11.90;77.50;;;;;;5025333;28;20037;-73
2020/12/13 04:02:32;;;;;;;63.15;25.17;;;11.90;77.50;;;;;;5030744;28;20034;-72
2020/12/13 04:04:58;;;;;;;62.30;25.83;;;11.90;77.60;;;;;;5010694;28;20042;-73
2020/12/13 04:07:24;;;;;;;57.00;23.80;;;11.80;77.60;;;;;;5011337;28;20057;-73
2020/12/13 04:09:49;;;;;;;53.60;25.92;;;11.80;77.60;;;;;;5013238;28;20052;-72
2020/12/13 04:12:15;;;;;;;67.05;26.38;;;11.80;77.70;;;;;;5031155;28;20025;-72
2020/12/13 04:14:40;;;;;;;50.88;22.10;;;11.90;77.80;;;;;;5025157;28;20044;-72
2020/12/13 04:17:06;;;;;;;53.22;24.25;;;11.90;77.80;;;;;;5030370;28;20029;-72
2020/12/13 04:19:32;;;;;;;60.38;24.77;;;11.90;77.80;;;;;;5029629;28;20068;-73
2020/12/13 04:21:58;;;;;;;60.80;25.38;;;11.90;77.80;;;;;;5020185;28;22441;-73
2020/12/13 04:24:24;;;;;;;63.30;26.55;;;11.90;77.80;;;;;;5020048;28;20040;-73
2020/12/13 04:26:49;;;;;;;56.17;26.40;;;11.90;77.80;;;;;;5026592;28;20029;-72
2020/12/13 04:29:15;;;;;;;55.50;26.27;;;11.90;77.70;;;;;;5011256;28;20037;-72
2020/12/13 04:31:41;;;;;;;50.60;23.83;;;11.90;77.70;;;;;;5024019;28;20084;-72
2020/12/13 04:34:06;;;;;;;67.93;25.10;;;11.90;77.80;;;;;;5011349;28;20045;-72
2020/12/13 04:36:32;;;;;;;57.95;26.70;;;11.90;77.80;;;;;;5011996;28;20116;-73
2020/12/13 04:38:58;;;;;;;58.00;23.63;;;11.90;77.80;;;;;;4997447;28;20124;-73
2020/12/13 04:41:23;;;;;;;60.08;25.45;;;12.00;77.90;;;;;;4994473;28;20145;-72
2020/12/13 04:43:49;;;;;;;66.40;25.85;;;11.90;77.90;;;;;;5023937;28;20332;-72
2020/12/13 04:46:15;;;;;;;59.95;24.00;;;11.90;77.90;;;;;;5021385;28;20083;-72
2020/12/13 04:48:41;;;;;;;65.15;27.35;;;11.90;77.90;;;;;;5026085;28;20068;-72
2020/12/13 04:51:08;;;;;;;67.22;25.98;;;11.90;77.90;;;;;;5024430;28;20042;-73
2020/12/13 04:53:38;;;;;;;52.97;24.77;;;12.00;78.00;;;;;;5031088;28;20029;-71
2020/12/13 04:56:09;;;;;;;51.55;23.02;;;12.00;78.00;;;;;;5025500;28;20030;-72
2020/12/13 04:58:35;;;;;;;52.97;23.25;;;12.00;78.10;;;;;;5021560;28;20064;-72
2020/12/13 05:01:03;;;;;;;54.72;24.90;;;11.90;78.30;;;;;;5029872;28;20036;-72
2020/12/13 05:03:29;;;;;;;64.25;27.42;;;11.90;78.40;;;;;;5016680;28;20483;-72
2020/12/13 05:05:58;;;;;;;48.90;23.05;;;12.00;78.30;;;;;;5011044;28;20030;-72
2020/12/13 05:08:25;;;;;;;51.85;22.52;;;12.00;78.30;;;;;;5013231;28;20037;-72
2020/12/13 05:10:50;;;;;;;51.83;22.70;;;12.00;78.30;;;;;;5021065;28;20182;-72
2020/12/13 05:13:16;;;;;;;48.22;25.08;;;12.00;78.20;;;;;;5029352;28;20120;-72
2020/12/13 05:15:42;;;;;;;48.88;22.90;;;12.10;78.20;;;;;;5025877;28;20049;-72
2020/12/13 05:18:07;;;;;;;54.05;23.63;;;12.10;78.20;;;;;;4998877;28;20468;-72
2020/12/13 05:20:33;;;;;;;45.63;22.25;;;12.10;78.20;;;;;;5009958;28;20400;-72
2020/12/13 05:22:59;;;;;;;49.40;22.92;;;12.10;78.30;;;;;;5017812;28;20106;-72
2020/12/13 05:25:29;;;;;;;46.28;24.25;;;12.10;78.40;;;;;;5021434;28;20074;-72
2020/12/13 05:27:58;;;;;;;49.22;24.00;;;12.10;78.50;;;;;;5011545;28;20036;-72
2020/12/13 05:30:31;;;;;;;41.70;21.17;;;12.10;78.40;;;;;;5013889;28;20056;-72
2020/12/13 05:33:00;;;;;;;40.78;19.70;;;12.10;78.40;;;;;;5034946;28;20045;-72
2020/12/13 05:35:28;;;;;;;45.40;23.83;;;12.20;78.40;;;;;;5027622;28;20025;-72
2020/12/13 05:37:54;;;;;;;42.03;20.73;;;12.20;78.50;;;;;;5029569;28;20039;-72
2020/12/13 05:40:21;;;;;;;45.17;22.23;;;12.20;78.60;;;;;;5024445;28;20108;-72
2020/12/13 05:42:57;;;;;;;42.55;22.85;;;12.20;78.60;;;;;;5019761;28;20135;-72
2020/12/13 05:53:19;;;;;;;39.28;20.63;;;12.20;78.70;;;;;;5011381;28;20033;-72
2020/12/13 05:55:45;;;;;;;36.33;21.00;;;12.20;78.70;;;;;;5010542;28;20026;-72
2020/12/13 05:58:11;;;;;;;40.25;21.27;;;12.30;78.70;;;;;;5020588;28;20122;-72
2020/12/13 06:00:37;;;;;;;40.83;20.73;;;12.20;78.60;;;;;;5027370;28;20112;-72
2020/12/13 06:03:05;;;;;;;44.25;21.23;;;12.20;78.60;;;;;;5023924;28;20037;-72
2020/12/13 06:05:36;;;;;;;40.25;20.65;;;12.30;78.70;;;;;;5016219;28;20041;-72
2020/12/13 06:08:04;;;;;;;37.05;19.63;;;12.30;78.70;;;;;;5017270;28;20048;-72
2020/12/13 06:10:34;;;;;;;41.45;22.70;;;12.20;78.70;;;;;;5008025;28;20030;-73
2020/12/13 06:13:02;;;;;;;41.33;22.48;;;12.30;78.70;;;;;;5013922;28;20021;-72
2020/12/13 06:15:30;;;;;;;39.80;20.95;;;12.20;79.00;;;;;;5016069;28;20577;-72
2020/12/13 06:17:56;;;;;;;35.17;19.92;;;12.20;79.20;;;;;;5023651;28;20061;-72
2020/12/13 06:20:23;;;;;;;37.28;19.65;;;12.10;79.30;;;;;;4997018;28;20451;-72
2020/12/13 06:22:50;;;;;;;36.00;19.50;;;12.10;79.40;;;;;;5025773;28;20034;-73
2020/12/13 06:25:18;;;;;;;39.65;19.73;;;12.10;79.50;;;;;;5026121;28;20448;-72
2020/12/13 06:27:44;;;;;;;41.60;19.85;;;12.20;79.60;;;;;;5011759;28;20069;-72
2020/12/13 06:30:10;;;;;;;37.92;22.05;;;12.10;79.60;;;;;;5008734;28;20058;-72
2020/12/13 06:32:41;;;;;;;32.17;19.27;;;12.10;79.90;;;;;;5009542;28;20030;-72
2020/12/13 06:35:07;;;;;;;39.38;20.35;;;12.00;80.00;;;;;;5011946;28;20096;-72
2020/12/13 06:37:36;;;;;;;39.47;21.33;;;12.00;80.20;;;;;;5022882;28;20478;-72
2020/12/13 06:40:06;;;;;;;38.03;19.35;;;12.00;80.20;;;;;;5029680;28;20042;-72
2020/12/13 06:42:38;;;;;;;35.35;21.23;;;12.00;80.20;;;;;;5014762;28;20033;-72
2020/12/13 06:45:12;;;;;;;32.80;18.55;;;12.00;80.40;;;;;;5014941;28;20113;-72
2020/12/13 06:47:45;;;;;;;38.05;21.05;;;12.00;80.50;;;;;;5019735;28;20033;-72
2020/12/13 06:50:21;;;;;;;40.33;19.20;;;12.00;80.40;;;;;;5013517;28;20026;-73
2020/12/13 06:52:50;;;;;;;33.97;18.83;;;12.10;80.10;;;;;;5033021;28;20110;-72
2020/12/13 06:55:16;;;;;;;34.22;18.90;;;12.10;79.90;;;;;;5027737;28;20048;-72
2020/12/13 06:57:42;;;;;;;29.67;17.65;;;12.20;79.80;;;;;;5023952;28;20033;-71
2020/12/13 07:00:09;;;;;;;32.88;18.65;;;12.20;79.80;;;;;;5001494;28;20483;-73
2020/12/13 07:03:01;;;;;;;33.15;19.55;;;12.10;80.00;;;;;;5028651;28;20038;-72
2020/12/13 07:05:54;;;;;;;37.08;18.13;;;12.10;80.00;;;;;;5027244;28;20060;-72
2020/12/13 07:08:23;;;;;;;41.73;22.03;;;12.10;80.20;;;;;;5021351;28;20041;-72
2020/12/13 07:10:52;;;;;;;34.50;20.10;;;12.00;80.40;;;;;;5032516;28;20045;-72
2020/12/13 07:13:23;;;;;;;35.00;19.13;;;12.00;80.30;;;;;;5020644;28;20462;-74
2020/12/13 07:16:02;;;;;;;38.42;18.55;;;12.10;80.20;;;;;;5021413;28;20130;-73
2020/12/13 07:18:31;;;;;;;32.63;18.42;;;12.10;80.10;;;;;;5012179;28;20533;-73
2020/12/13 07:20:57;;;;;;;30.65;17.38;;;12.10;80.00;;;;;;5026656;28;20052;-73
2020/12/13 07:23:24;;;;;;;33.25;17.63;;;12.10;80.00;;;;;;5016709;28;20526;-73
2020/12/13 07:25:51;;;;;;;33.08;17.70;;;12.10;80.00;;;;;;5013363;28;20033;-73
2020/12/13 07:28:17;;;;;;;33.97;18.77;;;12.00;80.10;;;;;;4997793;28;20056;-74
2020/12/13 07:30:44;;;;;;;34.88;19.45;;;12.00;80.20;;;;;;5012099;28;20061;-73
2020/12/13 07:33:10;;;;;;;34.45;18.23;;;12.00;80.30;;;;;;5010162;28;20029;-74
2020/12/13 07:35:36;;;;;;;36.47;18.58;;;12.10;80.40;;;;;;5019414;28;20064;-75
2020/12/13 07:38:02;;;;;;;31.70;16.85;;;12.10;80.40;;;;;;5023798;28;20084;-74
2020/12/13 07:40:29;;;;;;;31.27;16.80;;;12.10;80.40;;;;;;5022971;28;20117;-73
2020/12/13 07:42:54;;;;;;;33.03;18.38;;;12.10;80.30;;;;;;5011925;28;20025;-73
2020/12/13 07:45:20;;;;;;;31.92;18.58;;;12.20;80.10;;;;;;5025828;28;20079;-73
2020/12/13 07:48:05;;;;;;;33.95;18.27;;;12.20;80.10;;;;;;5021676;28;20042;-74
2020/12/13 07:50:44;;;;;;;31.92;18.60;;;12.10;80.20;;;;;;5016177;28;20506;-74
2020/12/13 07:53:09;;;;;;;34.17;17.63;;;12.10;80.20;;;;;;5020223;28;20065;-74
2020/12/13 07:55:41;;;;;;;31.80;18.77;;;12.10;80.20;;;;;;5027271;28;20486;-73
2020/12/13 07:58:07;;;;;;;36.53;18.38;;;12.20;80.10;;;;;;5017026;28;20061;-73
2020/12/13 08:00:33;;;;;;;32.30;17.45;;;12.30;79.80;;;;;;5028894;28;20444;-73
2020/12/13 08:02:58;;;;;;;29.10;16.80;;;12.30;79.60;;;;;;4992691;28;20406;-73
2020/12/13 08:05:26;;;;;;;33.78;17.20;;;12.30;79.50;;;;;;5009242;28;20121;-73
2020/12/13 08:08:01;;;;;;;33.28;17.90;;;12.40;79.50;;;;;;5018025;28;20141;-73
2020/12/13 08:10:30;;;;;;;27.33;16.15;;;12.30;79.50;;;;;;5022145;28;20044;-73
2020/12/13 08:12:56;;;;;;;29.88;16.90;;;12.40;79.50;;;;;;5024029;28;20033;-73
2020/12/13 08:15:22;;;;;;;34.20;18.85;;;12.40;79.50;;;;;;5015618;28;20484;-73
2020/12/13 08:18:03;;;;;;;27.95;18.52;;;12.40;79.40;;;;;;5027584;28;20064;-73
2020/12/13 08:20:31;;;;;;;31.13;18.80;;;12.40;79.20;;;;;;5028413;28;20111;-72
2020/12/13 08:23:01;;;;;;;31.98;19.48;;;12.40;79.10;;;;;;5031031;28;20052;-73
2020/12/13 08:25:28;;;;;;;32.53;18.05;;;12.40;79.00;;;;;;5031200;28;20032;-73
2020/12/13 08:27:56;;;;;;;32.45;19.13;;;12.40;79.10;;;;;;5013550;28;20045;-73
2020/12/13 08:30:24;;;;;;;30.48;17.95;;;12.30;79.20;;;;;;5031206;28;20101;-73
2020/12/13 08:32:52;;;;;;;28.92;17.95;;;12.30;79.30;;;;;;5023812;28;20035;-73
2020/12/13 08:35:19;;;;;;;24.58;14.75;;;12.30;79.50;;;;;;5021691;28;20601;-73
2020/12/13 08:37:55;;;;;;;30.42;16.83;;;12.30;79.50;;;;;;5027091;28;20034;-72
2020/12/13 08:40:37;;;;;;;30.58;17.55;;;12.20;79.60;;;;;;5000077;28;20111;-71
2020/12/13 08:43:03;;;;;;;25.77;15.93;;;12.30;79.60;;;;;;5014398;28;20025;-72
2020/12/13 08:45:29;;;;;;;26.48;15.95;;;12.30;79.60;;;;;;5011292;28;20033;-72
2020/12/13 08:48:03;;;;;;;27.40;14.82;;;12.30;79.50;;;;;;5010451;28;20047;-73
2020/12/13 08:50:39;;;;;;;27.17;15.18;;;12.30;79.50;;;;;;5026839;28;20060;-72
2020/12/13 08:53:26;;;;;;;27.55;15.20;;;12.30;79.40;;;;;;5023328;28;20091;-75
2020/12/13 08:56:05;;;;;;;24.77;15.50;;;12.40;79.20;;;;;;5016867;28;20503;-76
2020/12/13 08:58:48;;;;;;;26.08;14.88;;;12.30;79.10;;;;;;5012519;28;20503;-75
2020/12/13 09:01:14;;;;;;;22.60;14.70;;;12.40;79.20;;;;;;5014190;28;20033;-77
2020/12/13 09:03:40;;;;;;;22.38;13.85;;;12.40;79.00;;;;;;5010979;28;20362;-77
2020/12/13 09:06:05;;;;;;;25.17;14.43;;;12.30;79.00;;;;;;5017113;28;20025;-77
2020/12/13 09:08:31;;;;;;;23.48;14.25;;;12.20;79.10;;;;;;5036795;28;20128;-77
2020/12/13 09:11:03;;;;;;;22.10;14.23;;;12.10;79.40;;;;;;5019364;28;20034;-79
2020/12/13 09:13:29;;;;;;;22.17;13.18;;;12.10;79.40;;;;;;5033205;28;20029;-76
2020/12/13 09:15:55;;;;;;;26.75;15.48;;;12.10;79.30;;;;;;5015122;28;20054;-75
2020/12/13 09:18:20;;;;;;;22.85;13.93;;;12.10;79.30;;;;;;5025159;28;20044;-75
2020/12/13 09:20:56;;;;;;;22.75;15.07;;;12.10;79.40;;;;;;5015253;28;20121;-75
2020/12/13 09:23:21;;;;;;;25.02;13.65;;;12.10;79.40;;;;;;5034051;28;20041;-76
2020/12/13 09:25:51;;;;;;;27.83;15.27;;;11.10;79.00;;;;;;5031728;28;20034;-84
2020/12/13 09:28:16;;;;;;;22.63;13.98;;;12.00;79.60;;;;;;5014850;28;20363;-81
2020/12/13 09:30:43;;;;;;;24.73;14.73;;;12.00;79.60;;;;;;5014235;28;20111;-80
2020/12/13 09:33:09;;;;;;;27.23;15.98;;;12.00;79.50;;;;;;5021875;28;20093;-81
2020/12/13 09:35:35;;;;;;;21.83;14.32;;;12.00;79.50;;;;;;5022256;28;20030;-80
2020/12/13 09:38:05;;;;;;;31.10;15.95;;;12.00;79.70;;;;;;5017162;28;20030;-81
2020/12/13 09:40:32;;;;;;;26.42;16.05;;;12.00;79.80;;;;;;5022650;28;20028;-82
2020/12/13 09:42:58;;;;;;;26.77;14.82;;;12.00;79.70;;;;;;5036744;28;20033;-75
2020/12/13 09:45:24;;;;;;;25.67;15.13;;;12.10;79.50;;;;;;5026870;28;20021;-82
2020/12/13 09:47:50;;;;;;;22.00;13.00;;;12.20;79.30;;;;;;5018922;28;20041;-81
2020/12/13 09:50:21;;;;;;;22.63;14.55;;;12.20;79.20;;;;;;5033434;28;20184;-76
2020/12/13 09:52:46;;;;;;;28.48;16.13;;;12.30;78.90;;;;;;5016843;28;20523;-75
2020/12/13 09:55:12;;;;;;;32.25;16.63;;;12.30;78.90;;;;;;5026316;28;20025;-76
2020/12/13 09:57:38;;;;;;;27.27;14.23;;;12.30;78.80;;;;;;5017731;28;20073;-83
2020/12/13 10:00:05;;;;;;;29.00;16.70;;;12.30;78.70;;;;;;5021081;28;20041;-79
2020/12/13 10:02:31;;;;;;;27.40;16.48;;;12.40;78.70;;;;;;5020464;28;20026;-81
2020/12/13 10:04:56;;;;;;;31.38;16.92;;;12.30;78.70;;;;;;5032224;28;20037;-80
2020/12/13 10:08:55;;;;;;;31.30;17.38;;;12.30;78.60;;;;;;5030542;28;20056;-81
2020/12/13 10:10:07;;;;;;;28.40;19.02;;;12.30;78.50;;;;;;5031476;28;20045;-80
2020/12/13 10:12:33;;;;;;;34.30;19.98;;;12.30;78.30;;;;;;5016799;28;20045;-80
2020/12/13 10:14:58;;;;;;;32.65;20.70;;;12.30;78.30;;;;;;5033168;28;20061;-80
2020/12/13 10:17:24;;;;;;;51.97;20.98;;;12.30;78.10;;;;;;5031292;28;20029;-79
2020/12/13 10:19:50;;;;;;;32.28;20.42;;;12.30;78.30;;;;;;5024629;28;20930;-80
2020/12/13 10:22:15;;;;;;;34.25;20.95;;;12.30;77.90;;;;;;5033571;28;20471;-84
2020/12/13 10:24:41;;;;;;;37.60;23.17;;;12.30;78.20;;;;;;5013021;28;20029;-83
2020/12/13 10:27:06;;;;;;;38.47;23.10;;;12.30;78.20;;;;;;5030228;28;20029;-81
2020/12/13 10:29:32;;;;;;;35.75;22.35;;;12.30;78.20;;;;;;5028760;28;20037;-83
2020/12/13 10:31:57;;;;;;;37.55;21.38;;;12.40;78.00;;;;;;5010545;28;20077;-85
2020/12/13 10:34:23;;;;;;;36.97;23.40;;;12.40;77.60;;;;;;5015462;28;20033;-88
2020/12/13 10:36:50;;;;;;;32.97;21.67;;;12.30;77.70;;;;;;5021126;28;20475;-83
2020/12/13 10:39:24;;;;;;;33.25;22.42;;;12.40;77.50;;;;;;5035613;28;20038;-83
2020/12/13 10:41:54;;;;;;;34.58;23.00;;;12.40;77.50;;;;;;5011045;28;20033;-78
2020/12/13 10:44:20;;;;;;;37.33;22.65;;;12.40;77.30;;;;;;5019582;28;20036;-85
2020/12/13 10:46:47;;;;;;;35.92;21.52;;;12.50;77.10;;;;;;5023169;28;20135;-78
2020/12/13 10:49:13;;;;;;;37.97;24.30;;;12.50;77.10;;;;;;5019689;28;20042;-78
2020/12/13 10:51:38;;;;;;;33.22;22.13;;;12.50;77.10;;;;;;5012059;28;20045;-82
2020/12/13 10:54:04;;;;;;;36.67;22.15;;;12.50;76.80;;;;;;4996469;28;20022;-79
2020/12/13 10:56:29;;;;;;;31.00;20.27;;;12.50;76.80;;;;;;5032710;28;20033;-81
2020/12/13 10:58:55;;;;;;;33.45;19.73;;;12.60;76.90;;;;;;5022011;28;20049;-79
2020/12/13 11:01:21;;;;;;;29.10;20.45;;;12.60;76.50;;;;;;5022462;28;20061;-76
2020/12/13 11:03:46;;;;;;;36.53;20.10;;;12.70;76.10;;;;;;5021708;28;20045;-78
2020/12/13 11:06:12;;;;;;;31.80;20.73;;;12.80;75.50;;;;;;5028651;28;20383;-74
2020/12/13 11:08:38;;;;;;;32.38;19.55;;;12.70;75.60;;;;;;5030730;28;20069;-81
2020/12/13 11:11:05;;;;;;;28.58;18.67;;;12.80;75.60;;;;;;5026300;28;20064;-79
2020/12/13 11:13:31;;;;;;;29.65;19.23;;;12.80;75.70;;;;;;5027294;28;20025;-79
2020/12/13 11:15:56;;;;;;;30.27;18.60;;;12.80;75.40;;;;;;5026826;28;20525;-79
2020/12/13 11:18:22;;;;;;;33.33;20.38;;;13.00;75.40;;;;;;5027246;28;20155;-82
2020/12/13 11:20:48;;;;;;;28.15;17.83;;;13.00;75.10;;;;;;5009356;28;20106;-80
2020/12/13 11:23:13;;;;;;;24.92;18.20;;;13.00;75.10;;;;;;5029252;28;20041;-76
2020/12/13 11:25:39;;;;;;;32.88;21.55;;;13.10;74.60;;;;;;5015598;28;20029;-76
2020/12/13 11:28:06;;;;;;;32.47;18.23;;;13.10;74.00;;;;;;5019686;28;20037;-76
2020/12/13 11:30:32;;;;;;;25.83;17.23;;;13.20;74.40;;;;;;5014961;28;20213;-77
2020/12/13 11:32:58;;;;;;;25.60;17.15;;;13.20;74.60;;;;;;5027643;28;20056;-76
2020/12/13 11:35:24;;;;;;;26.75;17.23;;;13.30;74.60;;;;;;5015663;28;20026;-84
2020/12/13 11:37:50;;;;;;;27.50;16.00;;;13.30;73.30;;;;;;5017537;28;20048;-81
2020/12/13 11:40:15;;;;;;;26.10;15.73;;;13.40;73.50;;;;;;5031953;28;20428;-88
2020/12/13 11:42:41;;;;;;;23.58;14.70;;;13.40;73.50;;;;;;5015308;28;20037;-84
2020/12/13 11:45:08;;;;;;;18.83;12.32;;;13.50;73.50;;;;;;5013959;28;20092;-85
2020/12/13 11:47:34;;;;;;;18.13;13.00;;;13.60;71.90;;;;;;5013065;28;20079;-84
2020/12/13 11:50:00;;;;;;;22.70;13.65;;;13.70;72.40;;;;;;5016468;28;20049;-75
2020/12/13 11:52:26;;;;;;;19.85;11.75;;;13.70;71.30;;;;;;5024940;28;20038;-73
2020/12/13 11:54:52;;;;;;;16.73;9.55;;;13.70;70.80;;;;;;5027727;28;20124;-75
2020/12/13 11:57:17;;;;;;;14.38;8.98;;;13.60;70.70;;;;;;5012603;28;20137;-75
2020/12/13 11:59:44;;;;;;;21.05;10.75;;;13.60;71.10;;;;;;5033405;28;20041;-75
2020/12/13 12:02:09;;;;;;;15.25;9.07;;;13.60;70.70;;;;;;5033364;28;20029;-75
2020/12/13 12:04:35;;;;;;;12.95;8.20;;;13.60;70.70;;;;;;5013846;28;20060;-74
2020/12/13 12:07:02;;;;;;;12.70;7.50;;;13.60;70.10;;;;;;5013045;28;20038;-74
2020/12/13 12:09:27;;;;;;;14.52;7.43;;;13.60;69.80;;;;;;5015081;28;20041;-74
2020/12/13 12:11:53;;;;;;;15.50;7.57;;;13.50;70.10;;;;;;5016988;28;20045;-75
2020/12/13 12:14:19;;;;;;;14.13;7.85;;;13.50;69.90;;;;;;5035504;28;20043;-74
2020/12/13 12:16:45;;;;;;;12.70;6.88;;;13.50;69.90;;;;;;5008170;28;20124;-74
2020/12/13 12:19:14;;;;;;;12.55;6.15;;;13.50;69.60;;;;;;5014470;28;20104;-74
2020/12/13 12:21:47;;;;;;;14.75;7.45;;;13.50;68.80;;;;;;5012728;28;20064;-75
2020/12/13 12:24:20;;;;;;;10.98;6.45;;;13.40;68.90;;;;;;5015465;28;20030;-75
2020/12/13 12:26:46;;;;;;;11.70;6.07;;;13.40;68.20;;;;;;5015251;28;20022;-74
2020/12/13 12:29:11;;;;;;;12.82;6.03;;;13.40;68.40;;;;;;5014733;28;20087;-74
2020/12/13 12:31:37;;;;;;;11.45;5.90;;;13.30;68.50;;;;;;5013837;28;20050;-73
2020/12/13 12:34:03;;;;;;;12.93;5.30;;;13.30;69.10;;;;;;5017241;28;20022;-74
2020/12/13 12:36:29;;;;;;;11.32;5.28;;;13.40;69.50;;;;;;5031804;28;20475;-74
2020/12/13 12:38:55;;;;;;;17.60;6.68;;;13.40;69.30;;;;;;5034406;28;20048;-75
2020/12/13 12:41:22;;;;;;;9.38;4.32;;;13.40;69.00;;;;;;5035584;28;20030;-75